sensor_id;sensor_type;location;lat;lon;timestamp;pressure;altitude;pressure_sealevel;temperature;humidity
22311;BME280;11323;49.610;11.016;2024-03-08T00:00:56;98392.28;;;5.06;64.12
22311;BME280;11323;49.610;11.016;2024-03-08T00:05:59;98385.13;;;5.00;64.34
22311;BME280;11323;49.610;11.016;2024-03-08T00:11:00;98386.97;;;4.93;64.43
22311;BME280;11323;49.610;11.016;2024-03-08T00:16:04;98384.69;;;4.90;64.87
22311;BME280;11323;49.610;11.016;2024-03-08T00:21:05;98376.50;;;4.85;64.45
22311;BME280;11323;49.610;11.016;2024-03-08T00:26:06;98381.00;;;4.84;64.70
22311;BME280;11323;49.610;11.016;2024-03-08T00:31:07;98375.88;;;4.76;64.84
22311;BME280;11323;49.610;11.016;2024-03-08T00:36:11;98370.38;;;4.78;65.18
22311;BME280;11323;49.610;11.016;2024-03-08T00:41:12;98374.44;;;4.74;64.60
22311;BME280;11323;49.610;11.016;2024-03-08T00:46:16;98358.47;;;4.67;64.96
22311;BME280;11323;49.610;11.016;2024-03-08T00:51:17;98366.66;;;4.66;65.14
22311;BME280;11323;49.610;11.016;2024-03-08T00:56:18;98356.03;;;4.66;65.08
22311;BME280;11323;49.610;11.016;2024-03-08T01:01:22;98355.63;;;4.69;65.54
22311;BME280;11323;49.610;11.016;2024-03-08T01:06:23;98353.72;;;4.49;65.45
22311;BME280;11323;49.610;11.016;2024-03-08T01:11:26;98349.06;;;4.58;65.46
22311;BME280;11323;49.610;11.016;2024-03-08T01:16:30;98344.97;;;4.55;65.51
22311;BME280;11323;49.610;11.016;2024-03-08T01:21:31;98349.66;;;4.53;65.43
22311;BME280;11323;49.610;11.016;2024-03-08T01:26:35;98324.06;;;4.39;65.48
22311;BME280;11323;49.610;11.016;2024-03-08T01:31:38;98321.25;;;4.41;65.65
22311;BME280;11323;49.610;11.016;2024-03-08T01:36:39;98322.88;;;4.42;65.75
22311;BME280;11323;49.610;11.016;2024-03-08T01:41:46;98313.09;;;4.42;65.79
22311;BME280;11323;49.610;11.016;2024-03-08T01:46:55;98307.75;;;4.36;65.62
22311;BME280;11323;49.610;11.016;2024-03-08T01:51:56;98303.63;;;4.27;65.67
22311;BME280;11323;49.610;11.016;2024-03-08T01:57:00;98306.88;;;4.22;66.13
22311;BME280;11323;49.610;11.016;2024-03-08T02:02:05;98295.72;;;4.33;66.10
22311;BME280;11323;49.610;11.016;2024-03-08T02:07:07;98297.19;;;4.42;65.60
22311;BME280;11323;49.610;11.016;2024-03-08T02:12:10;98293.53;;;4.50;65.71
22311;BME280;11323;49.610;11.016;2024-03-08T02:17:13;98280.47;;;4.48;65.43
22311;BME280;11323;49.610;11.016;2024-03-08T02:22:14;98287.63;;;4.54;65.42
22311;BME280;11323;49.610;11.016;2024-03-08T02:27:15;98281.91;;;4.57;65.80
22311;BME280;11323;49.610;11.016;2024-03-08T02:32:23;98274.38;;;4.61;65.58
22311;BME280;11323;49.610;11.016;2024-03-08T02:37:30;98264.56;;;4.55;66.06
22311;BME280;11323;49.610;11.016;2024-03-08T02:42:31;98260.91;;;4.56;65.69
22311;BME280;11323;49.610;11.016;2024-03-08T02:47:35;98260.31;;;4.61;65.64
22311;BME280;11323;49.610;11.016;2024-03-08T02:52:36;98251.50;;;4.53;65.42
22311;BME280;11323;49.610;11.016;2024-03-08T02:57:40;98250.06;;;4.51;65.91
22311;BME280;11323;49.610;11.016;2024-03-08T03:02:41;98249.88;;;4.52;65.87
22311;BME280;11323;49.610;11.016;2024-03-08T03:07:43;98238.00;;;4.35;65.31
22311;BME280;11323;49.610;11.016;2024-03-08T03:12:47;98245.97;;;4.35;65.79
22311;BME280;11323;49.610;11.016;2024-03-08T03:17:51;98232.25;;;4.25;65.62
22311;BME280;11323;49.610;11.016;2024-03-08T03:22:52;98234.72;;;4.33;65.93
22311;BME280;11323;49.610;11.016;2024-03-08T03:28:00;98243.31;;;4.42;65.61
22311;BME280;11323;49.610;11.016;2024-03-08T03:33:02;98240.22;;;4.32;65.91
22311;BME280;11323;49.610;11.016;2024-03-08T03:38:07;98236.75;;;4.38;65.74
22311;BME280;11323;49.610;11.016;2024-03-08T03:43:11;98244.94;;;4.36;66.16
22311;BME280;11323;49.610;11.016;2024-03-08T03:48:12;98243.06;;;4.30;66.01
22311;BME280;11323;49.610;11.016;2024-03-08T03:53:19;98238.97;;;4.28;66.10
22311;BME280;11323;49.610;11.016;2024-03-08T03:58:19;98226.94;;;4.25;65.83
22311;BME280;11323;49.610;11.016;2024-03-08T04:03:26;98223.44;;;4.18;65.95
22311;BME280;11323;49.610;11.016;2024-03-08T04:08:26;98226.09;;;4.18;66.10
22311;BME280;11323;49.610;11.016;2024-03-08T04:13:30;98231.19;;;4.13;65.98
22311;BME280;11323;49.610;11.016;2024-03-08T04:18:31;98225.44;;;4.03;65.93
22311;BME280;11323;49.610;11.016;2024-03-08T04:23:33;98223.19;;;4.00;66.39
22311;BME280;11323;49.610;11.016;2024-03-08T04:28:36;98227.28;;;4.09;66.39
22311;BME280;11323;49.610;11.016;2024-03-08T04:33:38;98213.81;;;4.04;66.65
22311;BME280;11323;49.610;11.016;2024-03-08T04:38:40;98210.94;;;3.99;66.17
22311;BME280;11323;49.610;11.016;2024-03-08T04:43:44;98206.03;;;4.03;66.52
22311;BME280;11323;49.610;11.016;2024-03-08T04:48:50;98206.09;;;4.09;66.41
22311;BME280;11323;49.610;11.016;2024-03-08T04:53:51;98198.53;;;4.06;66.20
22311;BME280;11323;49.610;11.016;2024-03-08T04:58:55;98199.75;;;4.04;67.07
22311;BME280;11323;49.610;11.016;2024-03-08T05:03:58;98212.19;;;4.03;66.26
22311;BME280;11323;49.610;11.016;2024-03-08T05:09:02;98201.13;;;3.93;66.64
22311;BME280;11323;49.610;11.016;2024-03-08T05:14:26;98195.19;;;3.91;66.79
22311;BME280;11323;49.610;11.016;2024-03-08T05:19:27;98180.31;;;3.90;66.62
22311;BME280;11323;49.610;11.016;2024-03-08T05:24:36;98193.38;;;3.85;66.60
22311;BME280;11323;49.610;11.016;2024-03-08T05:29:40;98183.56;;;3.79;66.94
22311;BME280;11323;49.610;11.016;2024-03-08T05:34:50;98178.25;;;3.79;66.75
22311;BME280;11323;49.610;11.016;2024-03-08T05:39:51;98175.81;;;3.84;66.64
22311;BME280;11323;49.610;11.016;2024-03-08T05:44:55;98168.06;;;3.83;67.02
22311;BME280;11323;49.610;11.016;2024-03-08T05:49:58;98182.16;;;3.90;67.06
22311;BME280;11323;49.610;11.016;2024-03-08T05:55:02;98170.50;;;3.84;66.94
22311;BME280;11323;49.610;11.016;2024-03-08T06:00:13;98180.31;;;3.90;67.01
22311;BME280;11323;49.610;11.016;2024-03-08T06:05:30;98155.41;;;3.78;66.48
22311;BME280;11323;49.610;11.016;2024-03-08T06:10:38;98153.00;;;3.83;67.10
22311;BME280;11323;49.610;11.016;2024-03-08T06:15:43;98151.78;;;3.92;66.89
22311;BME280;11323;49.610;11.016;2024-03-08T06:20:43;98160.38;;;3.94;66.80
22311;BME280;11323;49.610;11.016;2024-03-08T06:25:53;98136.25;;;3.76;67.23
22311;BME280;11323;49.610;11.016;2024-03-08T06:30:54;98150.16;;;3.91;66.90
22311;BME280;11323;49.610;11.016;2024-03-08T06:35:55;98143.25;;;3.97;66.81
22311;BME280;11323;49.610;11.016;2024-03-08T06:40:59;98152.88;;;4.04;66.90
22311;BME280;11323;49.610;11.016;2024-03-08T06:46:07;98144.50;;;4.07;67.09
22311;BME280;11323;49.610;11.016;2024-03-08T06:51:14;98137.38;;;4.14;67.14
22311;BME280;11323;49.610;11.016;2024-03-08T06:56:18;98132.91;;;4.21;67.12
22311;BME280;11323;49.610;11.016;2024-03-08T07:01:37;98134.34;;;4.30;66.49
22311;BME280;11323;49.610;11.016;2024-03-08T07:06:42;98133.97;;;4.33;66.45
22311;BME280;11323;49.610;11.016;2024-03-08T07:11:46;98137.63;;;4.45;66.46
22311;BME280;11323;49.610;11.016;2024-03-08T07:16:56;98121.94;;;4.50;66.63
22311;BME280;11323;49.610;11.016;2024-03-08T07:22:10;98133.94;;;4.53;66.34
22311;BME280;11323;49.610;11.016;2024-03-08T07:27:33;98125.81;;;4.54;66.37
22311;BME280;11323;49.610;11.016;2024-03-08T07:32:42;98117.66;;;4.56;66.23
22311;BME280;11323;49.610;11.016;2024-03-08T07:37:48;98116.44;;;4.58;66.30
22311;BME280;11323;49.610;11.016;2024-03-08T07:42:50;98111.91;;;4.79;66.15
22311;BME280;11323;49.610;11.016;2024-03-08T07:47:54;98097.66;;;4.80;65.94
22311;BME280;11323;49.610;11.016;2024-03-08T07:53:02;98116.22;;;4.99;65.92
22311;BME280;11323;49.610;11.016;2024-03-08T07:58:04;98111.28;;;5.03;65.94
22311;BME280;11323;49.610;11.016;2024-03-08T08:03:12;98092.72;;;5.03;65.58
22311;BME280;11323;49.610;11.016;2024-03-08T08:08:19;98076.34;;;5.06;65.49
22311;BME280;11323;49.610;11.016;2024-03-08T08:13:32;98082.84;;;5.23;65.20
22311;BME280;11323;49.610;11.016;2024-03-08T08:18:43;98079.13;;;5.37;64.87
22311;BME280;11323;49.610;11.016;2024-03-08T08:23:49;98073.75;;;5.50;65.04
22311;BME280;11323;49.610;11.016;2024-03-08T08:28:53;98079.44;;;5.60;64.71
22311;BME280;11323;49.610;11.016;2024-03-08T08:34:01;98070.47;;;5.61;64.44
22311;BME280;11323;49.610;11.016;2024-03-08T08:39:17;98073.00;;;5.87;64.15
22311;BME280;11323;49.610;11.016;2024-03-08T08:44:18;98056.81;;;5.89;63.80
22311;BME280;11323;49.610;11.016;2024-03-08T08:49:19;98055.09;;;6.07;63.98
22311;BME280;11323;49.610;11.016;2024-03-08T08:54:21;98059.00;;;6.29;63.90
22311;BME280;11323;49.610;11.016;2024-03-08T08:59:22;98054.63;;;6.42;63.74
22311;BME280;11323;49.610;11.016;2024-03-08T09:04:25;98043.00;;;6.61;63.17
22311;BME280;11323;49.610;11.016;2024-03-08T09:09:26;98030.59;;;6.73;63.22
22311;BME280;11323;49.610;11.016;2024-03-08T09:14:27;98033.44;;;6.96;62.59
22311;BME280;11323;49.610;11.016;2024-03-08T09:19:28;98020.22;;;7.07;62.73
22311;BME280;11323;49.610;11.016;2024-03-08T09:24:29;98023.06;;;7.24;62.97
22311;BME280;11323;49.610;11.016;2024-03-08T09:29:30;98017.75;;;7.24;61.85
22311;BME280;11323;49.610;11.016;2024-03-08T09:34:38;98006.06;;;7.43;61.73
22311;BME280;11323;49.610;11.016;2024-03-08T09:39:42;98003.22;;;7.56;61.72
22311;BME280;11323;49.610;11.016;2024-03-08T09:45:01;98007.53;;;7.69;61.13
22311;BME280;11323;49.610;11.016;2024-03-08T09:50:02;97997.50;;;7.82;60.83
22311;BME280;11323;49.610;11.016;2024-03-08T09:55:07;98000.44;;;7.92;59.82
22311;BME280;11323;49.610;11.016;2024-03-08T10:00:11;98009.34;;;7.86;59.81
22311;BME280;11323;49.610;11.016;2024-03-08T10:05:23;97994.06;;;7.93;60.44
22311;BME280;11323;49.610;11.016;2024-03-08T10:10:25;97991.63;;;8.03;60.13
22311;BME280;11323;49.610;11.016;2024-03-08T10:15:29;97976.94;;;8.12;60.12
22311;BME280;11323;49.610;11.016;2024-03-08T10:20:31;97968.63;;;8.20;59.24
22311;BME280;11323;49.610;11.016;2024-03-08T10:25:36;97973.03;;;8.27;59.48
22311;BME280;11323;49.610;11.016;2024-03-08T10:30:37;97963.44;;;8.37;59.48
22311;BME280;11323;49.610;11.016;2024-03-08T10:35:38;97961.44;;;8.44;59.42
22311;BME280;11323;49.610;11.016;2024-03-08T10:40:39;97950.66;;;8.51;59.06
22311;BME280;11323;49.610;11.016;2024-03-08T10:45:41;97940.91;;;8.56;58.46
22311;BME280;11323;49.610;11.016;2024-03-08T10:50:45;97939.38;;;8.72;58.19
22311;BME280;11323;49.610;11.016;2024-03-08T10:55:47;97934.94;;;8.89;58.15
22311;BME280;11323;49.610;11.016;2024-03-08T11:00:50;97929.00;;;8.98;57.88
22311;BME280;11323;49.610;11.016;2024-03-08T11:05:55;97925.28;;;8.99;57.65
22311;BME280;11323;49.610;11.016;2024-03-08T11:10:57;97911.09;;;8.99;57.47
22311;BME280;11323;49.610;11.016;2024-03-08T11:15:59;97904.31;;;9.08;57.24
22311;BME280;11323;49.610;11.016;2024-03-08T11:21:09;97910.25;;;9.10;56.66
22311;BME280;11323;49.610;11.016;2024-03-08T11:26:20;97898.16;;;9.19;57.09
22311;BME280;11323;49.610;11.016;2024-03-08T11:31:23;97889.72;;;9.39;56.15
22311;BME280;11323;49.610;11.016;2024-03-08T11:36:25;97879.22;;;9.37;55.93
22311;BME280;11323;49.610;11.016;2024-03-08T11:41:26;97861.84;;;9.51;56.35
22311;BME280;11323;49.610;11.016;2024-03-08T11:46:27;97860.50;;;9.65;55.78
22311;BME280;11323;49.610;11.016;2024-03-08T11:51:28;97853.34;;;9.71;56.06
22311;BME280;11323;49.610;11.016;2024-03-08T11:56:30;97846.22;;;9.76;55.65
22311;BME280;11323;49.610;11.016;2024-03-08T12:01:32;97846.84;;;9.83;54.66
22311;BME280;11323;49.610;11.016;2024-03-08T12:06:38;97822.88;;;9.88;54.72
22311;BME280;11323;49.610;11.016;2024-03-08T12:11:42;97831.63;;;9.84;54.24
22311;BME280;11323;49.610;11.016;2024-03-08T12:16:43;97815.41;;;9.90;53.68
22311;BME280;11323;49.610;11.016;2024-03-08T12:21:45;97808.13;;;10.02;53.72
22311;BME280;11323;49.610;11.016;2024-03-08T12:26:52;97805.19;;;10.04;53.45
22311;BME280;11323;49.610;11.016;2024-03-08T12:31:59;97804.44;;;10.09;54.22
22311;BME280;11323;49.610;11.016;2024-03-08T12:37:01;97794.97;;;10.18;54.15
22311;BME280;11323;49.610;11.016;2024-03-08T12:42:02;97785.13;;;10.23;54.94
22311;BME280;11323;49.610;11.016;2024-03-08T12:47:03;97784.41;;;10.28;54.18
22311;BME280;11323;49.610;11.016;2024-03-08T12:52:09;97776.28;;;10.23;53.01
22311;BME280;11323;49.610;11.016;2024-03-08T12:57:10;97766.22;;;10.30;52.67
22311;BME280;11323;49.610;11.016;2024-03-08T13:02:11;97751.34;;;10.39;53.96
22311;BME280;11323;49.610;11.016;2024-03-08T13:07:12;97751.69;;;10.47;53.36
22311;BME280;11323;49.610;11.016;2024-03-08T13:12:17;97736.44;;;10.48;52.92
22311;BME280;11323;49.610;11.016;2024-03-08T13:17:18;97731.16;;;10.53;52.74
22311;BME280;11323;49.610;11.016;2024-03-08T13:22:21;97725.84;;;10.58;53.44
22311;BME280;11323;49.610;11.016;2024-03-08T13:27:23;97725.44;;;10.71;53.39
22311;BME280;11323;49.610;11.016;2024-03-08T13:32:25;97729.78;;;10.77;53.06
22311;BME280;11323;49.610;11.016;2024-03-08T13:37:27;97719.75;;;10.89;53.17
22311;BME280;11323;49.610;11.016;2024-03-08T13:42:34;97706.91;;;10.91;53.53
22311;BME280;11323;49.610;11.016;2024-03-08T13:47:35;97702.03;;;10.88;52.70
22311;BME280;11323;49.610;11.016;2024-03-08T13:52:39;97696.19;;;10.91;52.28
22311;BME280;11323;49.610;11.016;2024-03-08T13:57:40;97696.47;;;10.95;51.77
22311;BME280;11323;49.610;11.016;2024-03-08T14:02:41;97686.31;;;10.97;52.20
22311;BME280;11323;49.610;11.016;2024-03-08T14:07:42;97681.22;;;10.95;52.38
22311;BME280;11323;49.610;11.016;2024-03-08T14:12:46;97665.91;;;10.96;51.86
22311;BME280;11323;49.610;11.016;2024-03-08T14:17:54;97662.16;;;10.92;52.23
22311;BME280;11323;49.610;11.016;2024-03-08T14:22:58;97663.25;;;10.96;52.38
22311;BME280;11323;49.610;11.016;2024-03-08T14:28:00;97645.84;;;10.98;52.38
22311;BME280;11323;49.610;11.016;2024-03-08T14:33:10;97645.84;;;10.98;52.94
22311;BME280;11323;49.610;11.016;2024-03-08T14:38:11;97642.13;;;10.99;52.53
22311;BME280;11323;49.610;11.016;2024-03-08T14:43:13;97643.13;;;10.93;52.24
22311;BME280;11323;49.610;11.016;2024-03-08T14:48:15;97630.00;;;10.92;52.45
22311;BME280;11323;49.610;11.016;2024-03-08T14:53:18;97628.06;;;10.87;51.95
22311;BME280;11323;49.610;11.016;2024-03-08T14:58:19;97623.75;;;10.86;52.38
22311;BME280;11323;49.610;11.016;2024-03-08T15:03:22;97614.69;;;10.87;52.35
22311;BME280;11323;49.610;11.016;2024-03-08T15:08:28;97619.50;;;10.90;52.09
22311;BME280;11323;49.610;11.016;2024-03-08T15:13:29;97605.50;;;10.78;52.40
22311;BME280;11323;49.610;11.016;2024-03-08T15:18:39;97604.94;;;10.76;53.06
22311;BME280;11323;49.610;11.016;2024-03-08T15:23:40;97587.25;;;10.75;52.41
22311;BME280;11323;49.610;11.016;2024-03-08T15:28:47;97594.78;;;10.78;52.26
22311;BME280;11323;49.610;11.016;2024-03-08T15:33:51;97596.81;;;10.66;52.97
22311;BME280;11323;49.610;11.016;2024-03-08T15:39:00;97588.16;;;10.59;52.73
22311;BME280;11323;49.610;11.016;2024-03-08T15:44:01;97586.47;;;10.48;52.94
22311;BME280;11323;49.610;11.016;2024-03-08T15:49:01;97581.81;;;10.38;53.10
22311;BME280;11323;49.610;11.016;2024-03-08T15:54:03;97580.41;;;10.31;53.12
22311;BME280;11323;49.610;11.016;2024-03-08T15:59:05;97579.81;;;10.24;53.53
22311;BME280;11323;49.610;11.016;2024-03-08T16:04:10;97574.97;;;10.21;53.65
22311;BME280;11323;49.610;11.016;2024-03-08T16:09:12;97584.56;;;10.17;53.56
22311;BME280;11323;49.610;11.016;2024-03-08T16:14:15;97566.22;;;10.09;53.50
22311;BME280;11323;49.610;11.016;2024-03-08T16:19:16;97558.41;;;10.02;53.26
22311;BME280;11323;49.610;11.016;2024-03-08T16:24:17;97554.94;;;10.01;53.47
22311;BME280;11323;49.610;11.016;2024-03-08T16:29:19;97558.69;;;10.00;54.25
22311;BME280;11323;49.610;11.016;2024-03-08T16:34:20;97549.97;;;9.88;54.21
22311;BME280;11323;49.610;11.016;2024-03-08T16:39:21;97548.31;;;9.82;54.49
22311;BME280;11323;49.610;11.016;2024-03-08T16:44:24;97549.56;;;9.75;54.38
22311;BME280;11323;49.610;11.016;2024-03-08T16:49:25;97548.13;;;9.67;54.24
22311;BME280;11323;49.610;11.016;2024-03-08T16:54:26;97546.72;;;9.60;54.36
22311;BME280;11323;49.610;11.016;2024-03-08T16:59:27;97549.56;;;9.53;55.06
22311;BME280;11323;49.610;11.016;2024-03-08T17:04:27;97562.63;;;9.50;54.98
22311;BME280;11323;49.610;11.016;2024-03-08T17:09:28;97546.50;;;9.45;55.11
22311;BME280;11323;49.610;11.016;2024-03-08T17:14:30;97545.63;;;9.39;55.23
22311;BME280;11323;49.610;11.016;2024-03-08T17:19:32;97538.97;;;9.20;55.15
22311;BME280;11323;49.610;11.016;2024-03-08T17:24:32;97537.03;;;9.16;55.21
22311;BME280;11323;49.610;11.016;2024-03-08T17:29:33;97536.16;;;9.10;55.84
22311;BME280;11323;49.610;11.016;2024-03-08T17:34:37;97542.66;;;8.97;55.77
22311;BME280;11323;49.610;11.016;2024-03-08T17:39:40;97545.59;;;8.96;55.46
22311;BME280;11323;49.610;11.016;2024-03-08T17:44:42;97546.16;;;8.98;55.96
22311;BME280;11323;49.610;11.016;2024-03-08T17:49:45;97544.38;;;8.87;55.51
22311;BME280;11323;49.610;11.016;2024-03-08T17:54:46;97550.47;;;8.82;55.69
22311;BME280;11323;49.610;11.016;2024-03-08T17:59:47;97538.81;;;8.72;56.21
22311;BME280;11323;49.610;11.016;2024-03-08T18:04:48;97532.84;;;8.65;56.31
22311;BME280;11323;49.610;11.016;2024-03-08T18:09:49;97541.81;;;8.59;55.84
22311;BME280;11323;49.610;11.016;2024-03-08T18:14:50;97535.25;;;8.50;56.19
22311;BME280;11323;49.610;11.016;2024-03-08T18:19:50;97538.00;;;8.38;56.01
22311;BME280;11323;49.610;11.016;2024-03-08T18:24:52;97545.47;;;8.36;56.52
22311;BME280;11323;49.610;11.016;2024-03-08T18:29:53;97543.28;;;8.21;56.27
22311;BME280;11323;49.610;11.016;2024-03-08T18:34:53;97540.16;;;8.25;56.61
22311;BME280;11323;49.610;11.016;2024-03-08T18:39:55;97535.84;;;8.23;56.63
22311;BME280;11323;49.610;11.016;2024-03-08T18:44:56;97533.13;;;8.18;56.85
22311;BME280;11323;49.610;11.016;2024-03-08T18:49:57;97527.66;;;8.13;57.28
22311;BME280;11323;49.610;11.016;2024-03-08T18:54:59;97524.03;;;8.03;57.00
22311;BME280;11323;49.610;11.016;2024-03-08T19:00:01;97515.13;;;7.97;57.63
22311;BME280;11323;49.610;11.016;2024-03-08T19:05:06;97514.94;;;7.87;57.75
22311;BME280;11323;49.610;11.016;2024-03-08T19:10:18;97514.47;;;7.90;57.27
22311;BME280;11323;49.610;11.016;2024-03-08T19:15:21;97512.00;;;7.72;57.62
22311;BME280;11323;49.610;11.016;2024-03-08T19:20:24;97502.06;;;7.68;58.19
22311;BME280;11323;49.610;11.016;2024-03-08T19:25:30;97499.88;;;7.53;58.42
22311;BME280;11323;49.610;11.016;2024-03-08T19:30:33;97499.81;;;7.48;58.24
22311;BME280;11323;49.610;11.016;2024-03-08T19:35:36;97500.84;;;7.47;57.96
22311;BME280;11323;49.610;11.016;2024-03-08T19:40:38;97505.13;;;7.48;58.82
22311;BME280;11323;49.610;11.016;2024-03-08T19:45:41;97481.63;;;7.45;58.23
22311;BME280;11323;49.610;11.016;2024-03-08T19:50:43;97495.28;;;7.49;58.51
22311;BME280;11323;49.610;11.016;2024-03-08T19:55:49;97485.25;;;7.39;58.50
22311;BME280;11323;49.610;11.016;2024-03-08T20:00:51;97480.28;;;7.31;58.93
22311;BME280;11323;49.610;11.016;2024-03-08T20:05:53;97482.25;;;7.24;59.22
22311;BME280;11323;49.610;11.016;2024-03-08T20:10:55;97483.06;;;7.24;59.14
22311;BME280;11323;49.610;11.016;2024-03-08T20:15:57;97484.16;;;7.12;59.12
22311;BME280;11323;49.610;11.016;2024-03-08T20:20:58;97481.38;;;7.07;59.13
22311;BME280;11323;49.610;11.016;2024-03-08T20:25:58;97470.06;;;7.00;59.15
22311;BME280;11323;49.610;11.016;2024-03-08T20:31:01;97452.59;;;6.92;59.60
22311;BME280;11323;49.610;11.016;2024-03-08T20:36:02;97443.00;;;6.80;59.70
22311;BME280;11323;49.610;11.016;2024-03-08T20:41:07;97446.25;;;6.70;59.59
22311;BME280;11323;49.610;11.016;2024-03-08T20:46:11;97431.03;;;6.54;59.92
22311;BME280;11323;49.610;11.016;2024-03-08T20:51:16;97437.72;;;6.57;60.02
22311;BME280;11323;49.610;11.016;2024-03-08T20:56:23;97427.91;;;6.46;60.08
22311;BME280;11323;49.610;11.016;2024-03-08T21:01:25;97430.78;;;6.56;60.51
22311;BME280;11323;49.610;11.016;2024-03-08T21:06:34;97423.75;;;6.38;60.89
22311;BME280;11323;49.610;11.016;2024-03-08T21:11:35;97402.56;;;6.31;60.77
22311;BME280;11323;49.610;11.016;2024-03-08T21:16:39;97409.63;;;6.37;60.54
22311;BME280;11323;49.610;11.016;2024-03-08T21:21:42;97406.97;;;6.37;60.46
22311;BME280;11323;49.610;11.016;2024-03-08T21:26:43;97413.91;;;6.38;60.85
22311;BME280;11323;49.610;11.016;2024-03-08T21:31:47;97416.19;;;6.47;60.71
22311;BME280;11323;49.610;11.016;2024-03-08T21:36:49;97413.09;;;6.50;60.96
22311;BME280;11323;49.610;11.016;2024-03-08T21:41:50;97418.63;;;6.60;60.80
22311;BME280;11323;49.610;11.016;2024-03-08T21:46:51;97415.28;;;6.53;60.98
22311;BME280;11323;49.610;11.016;2024-03-08T21:51:53;97398.38;;;6.47;60.74
22311;BME280;11323;49.610;11.016;2024-03-08T21:56:59;97405.56;;;6.47;60.61
22311;BME280;11323;49.610;11.016;2024-03-08T22:01:59;97408.13;;;6.42;61.03
22311;BME280;11323;49.610;11.016;2024-03-08T22:07:02;97419.22;;;6.38;60.93
22311;BME280;11323;49.610;11.016;2024-03-08T22:12:07;97407.88;;;6.31;60.88
22311;BME280;11323;49.610;11.016;2024-03-08T22:17:09;97405.56;;;6.23;61.13
22311;BME280;11323;49.610;11.016;2024-03-08T22:22:11;97406.63;;;6.11;61.33
22311;BME280;11323;49.610;11.016;2024-03-08T22:27:15;97400.72;;;5.97;61.61
22311;BME280;11323;49.610;11.016;2024-03-08T22:32:19;97398.13;;;5.79;61.54
22311;BME280;11323;49.610;11.016;2024-03-08T22:37:23;97394.63;;;5.67;61.77
22311;BME280;11323;49.610;11.016;2024-03-08T22:42:24;97404.13;;;5.63;61.88
22311;BME280;11323;49.610;11.016;2024-03-08T22:47:40;97394.47;;;5.50;61.90
22311;BME280;11323;49.610;11.016;2024-03-08T22:52:45;97385.66;;;5.38;62.22
22311;BME280;11323;49.610;11.016;2024-03-08T22:57:46;97382.06;;;5.33;62.23
22311;BME280;11323;49.610;11.016;2024-03-08T23:02:54;97381.81;;;5.23;62.41
22311;BME280;11323;49.610;11.016;2024-03-08T23:07:56;97377.41;;;5.17;62.13
22311;BME280;11323;49.610;11.016;2024-03-08T23:13:02;97358.78;;;5.05;62.54
22311;BME280;11323;49.610;11.016;2024-03-08T23:18:05;97355.53;;;5.03;62.70
22311;BME280;11323;49.610;11.016;2024-03-08T23:23:14;97372.28;;;5.04;62.84
22311;BME280;11323;49.610;11.016;2024-03-08T23:28:14;97371.56;;;4.97;62.80
22311;BME280;11323;49.610;11.016;2024-03-08T23:33:19;97353.53;;;4.87;63.10
22311;BME280;11323;49.610;11.016;2024-03-08T23:38:20;97365.16;;;4.86;62.77
22311;BME280;11323;49.610;11.016;2024-03-08T23:43:21;97350.47;;;4.72;62.99
22311;BME280;11323;49.610;11.016;2024-03-08T23:48:22;97349.88;;;4.70;62.84
22311;BME280;11323;49.610;11.016;2024-03-08T23:53:23;97343.75;;;4.70;63.25
22311;BME280;11323;49.610;11.016;2024-03-08T23:58:26;97349.50;;;4.67;63.24
